Estación Meteorológica Peña el Pijo (Robertgarden) [ 10/16/18 03:54:57 CEST ]

Fecha Hora Presion(HPa) Temp (°C) Humedad % Rocio (°C) Viento ( m/s) Direccion Lluvia 1Hora(mm) Lluvia 24H(mm) LLuvia Total(mm)
2018-Feb-07 01:01:58 998.300 -1.9 77 -5.4         76.66
2018-Feb-07 02:01:39 998.400 -2.7 78 -6.0         76.66
2018-Feb-07 03:04:08 998.400 -3.0 79 -6.2         76.66
2018-Feb-07 04:02:01 998.400 -3.6 78 -6.9         76.66
2018-Feb-07 05:01:52 998.400 -4.5 78 -7.8         76.66
2018-Feb-07 06:01:46 998.600 -4.6 78 -7.8         76.66
2018-Feb-07 07:01:39 998.700 -5.1 79 -8.2         76.66
2018-Feb-07 08:01:48 999.300 -5.1 80 -8.0         76.66
2018-Feb-07 09:01:44 999.600 -5.3 79 -8.4         76.66
2018-Feb-07 10:01:47 1000.100 0.1 76 -3.6         76.66
2018-Feb-07 11:01:48 1000.400 4.3 56 -3.8         76.66
2018-Feb-07 12:02:00 1000.700 7.1 48 -3.2         76.66
2018-Feb-07 13:01:40 1000.500 5.9 47 -4.6         76.66
2018-Feb-07 14:01:43 1000.300 6.8 45 -4.4         76.66
2018-Feb-07 15:01:39 999.700 8.5 42 -3.8         76.66
2018-Feb-07 16:01:52 999.800 8.6 40 -4.3         76.66
2018-Feb-07 17:01:50 1000.100 5.3 48 -4.9         76.66
2018-Feb-07 18:01:48 1000.400 3.5 54 -5.0         76.66
2018-Feb-07 19:01:47 1001.100 1.3 61 -5.4         76.66
2018-Feb-07 20:01:42 1002.400 -0.6 67 -6.0         76.66
2018-Feb-07 21:01:53 1003.100 -0.9 71 -5.5         76.66
2018-Feb-07 22:01:40 1003.500 -1.4 72 -5.8         76.66
2018-Feb-07 23:01:40 1003.700 -1.2 75 -5.1         76.66

Temperatura Máxima:    Temperatura Mínima:-5°
Presión Máxima:1003.700 Hpa    Presión Mínima:998.300 Hpa


Volver